sensor_id;sensor_type;location;lat;lon;timestamp;pressure;altitude;pressure_sealevel;temperature;humidity
41250;BME280;26984;59.928;30.306;2023-04-01T00:02:17;100283.97;;;1.09;100.00
41250;BME280;26984;59.928;30.306;2023-04-01T00:04:46;100278.16;;;1.13;100.00
41250;BME280;26984;59.928;30.306;2023-04-01T00:07:18;100287.25;;;1.03;100.00
41250;BME280;26984;59.928;30.306;2023-04-01T00:09:46;100286.63;;;1.17;100.00
41250;BME280;26984;59.928;30.306;2023-04-01T00:12:13;100283.00;;;1.18;100.00
41250;BME280;26984;59.928;30.306;2023-04-01T00:14:41;100285.34;;;1.21;100.00
41250;BME280;26984;59.928;30.306;2023-04-01T00:17:08;100282.19;;;1.17;100.00
41250;BME280;26984;59.928;30.306;2023-04-01T00:19:36;100280.03;;;1.21;100.00
41250;BME280;26984;59.928;30.306;2023-04-01T00:22:05;100276.38;;;1.14;100.00
41250;BME280;26984;59.928;30.306;2023-04-01T00:24:35;100278.66;;;1.17;100.00
41250;BME280;26984;59.928;30.306;2023-04-01T00:27:02;100282.31;;;1.16;100.00
41250;BME280;26984;59.928;30.306;2023-04-01T00:29:31;100284.28;;;1.06;100.00
41250;BME280;26984;59.928;30.306;2023-04-01T00:31:58;100287.25;;;1.03;100.00
41250;BME280;26984;59.928;30.306;2023-04-01T00:34:26;100281.47;;;0.99;100.00
41250;BME280;26984;59.928;30.306;2023-04-01T00:36:55;100283.31;;;1.07;100.00
41250;BME280;26984;59.928;30.306;2023-04-01T00:39:25;100277.16;;;0.98;100.00
41250;BME280;26984;59.928;30.306;2023-04-01T00:41:52;100277.97;;;0.99;100.00
41250;BME280;26984;59.928;30.306;2023-04-01T00:44:22;100282.63;;;0.97;100.00
41250;BME280;26984;59.928;30.306;2023-04-01T00:46:50;100273.50;;;0.99;100.00
41250;BME280;26984;59.928;30.306;2023-04-01T00:49:19;100278.97;;;0.98;100.00
41250;BME280;26984;59.928;30.306;2023-04-01T00:51:48;100277.97;;;0.82;100.00
41250;BME280;26984;59.928;30.306;2023-04-01T00:54:17;100279.09;;;0.80;100.00
41250;BME280;26984;59.928;30.306;2023-04-01T00:56:48;100277.06;;;0.65;100.00
41250;BME280;26984;59.928;30.306;2023-04-01T00:59:18;100276.06;;;0.66;100.00
41250;BME280;26984;59.928;30.306;2023-04-01T01:01:47;100277.25;;;0.72;100.00
41250;BME280;26984;59.928;30.306;2023-04-01T01:04:21;100271.09;;;0.63;100.00
41250;BME280;26984;59.928;30.306;2023-04-01T01:06:51;100266.97;;;0.69;100.00
41250;BME280;26984;59.928;30.306;2023-04-01T01:09:27;100267.81;;;0.69;100.00
41250;BME280;26984;59.928;30.306;2023-04-01T01:12:00;100270.94;;;0.65;100.00
41250;BME280;26984;59.928;30.306;2023-04-01T01:14:35;100268.28;;;0.65;100.00
41250;BME280;26984;59.928;30.306;2023-04-01T01:17:09;100266.97;;;0.69;100.00
41250;BME280;26984;59.928;30.306;2023-04-01T01:19:48;100273.09;;;0.69;100.00
41250;BME280;26984;59.928;30.306;2023-04-01T01:22:28;100270.63;;;0.68;100.00
41250;BME280;26984;59.928;30.306;2023-04-01T01:25:04;100269.94;;;0.66;100.00
41250;BME280;26984;59.928;30.306;2023-04-01T01:27:41;100270.94;;;0.65;100.00
41250;BME280;26984;59.928;30.306;2023-04-01T01:30:21;100272.91;;;0.63;100.00
41250;BME280;26984;59.928;30.306;2023-04-01T01:35:38;100263.19;;;0.71;100.00
41250;BME280;26984;59.928;30.306;2023-04-01T01:38:15;100269.81;;;0.76;100.00
41250;BME280;26984;59.928;30.306;2023-04-01T01:40:52;100270.44;;;0.69;100.00
41250;BME280;26984;59.928;30.306;2023-04-01T01:43:24;100269.81;;;0.76;100.00
41250;BME280;26984;59.928;30.306;2023-04-01T01:45:53;100270.97;;;0.73;100.00
41250;BME280;26984;59.928;30.306;2023-04-01T01:48:22;100272.78;;;0.73;100.00
41250;BME280;26984;59.928;30.306;2023-04-01T01:50:51;100266.16;;;0.68;100.00
41250;BME280;26984;59.928;30.306;2023-04-01T01:53:20;100268.13;;;0.66;100.00
41250;BME280;26984;59.928;30.306;2023-04-01T01:55:48;100274.53;;;0.56;100.00
41250;BME280;26984;59.928;30.306;2023-04-01T01:58:18;100269.25;;;0.56;100.00
41250;BME280;26984;59.928;30.306;2023-04-01T02:00:49;100270.25;;;0.55;100.00
41250;BME280;26984;59.928;30.306;2023-04-01T02:03:17;100268.44;;;0.63;100.00
41250;BME280;26984;59.928;30.306;2023-04-01T02:05:47;100265.97;;;0.62;100.00
41250;BME280;26984;59.928;30.306;2023-04-01T02:08:19;100265.28;;;0.60;100.00
41250;BME280;26984;59.928;30.306;2023-04-01T02:10:49;100274.06;;;0.60;100.00
41250;BME280;26984;59.928;30.306;2023-04-01T02:13:23;100255.34;;;0.54;100.00
41250;BME280;26984;59.928;30.306;2023-04-01T02:15:52;100263.63;;;0.59;100.00
41250;BME280;26984;59.928;30.306;2023-04-01T02:18:23;100278.19;;;0.55;100.00
41250;BME280;26984;59.928;30.306;2023-04-01T02:20:50;100261.59;;;0.53;100.00
41250;BME280;26984;59.928;30.306;2023-04-01T02:23:20;100262.59;;;0.52;100.00
41250;BME280;26984;59.928;30.306;2023-04-01T02:25:47;100270.25;;;0.55;100.00
41250;BME280;26984;59.928;30.306;2023-04-01T02:28:16;100269.59;;;0.61;100.00
41250;BME280;26984;59.928;30.306;2023-04-01T02:30:46;100265.56;;;0.48;100.00
41250;BME280;26984;59.928;30.306;2023-04-01T02:33:15;100273.53;;;0.57;100.00
41250;BME280;26984;59.928;30.306;2023-04-01T02:35:42;100267.94;;;0.60;100.00
41250;BME280;26984;59.928;30.306;2023-04-01T02:38:10;100267.09;;;0.59;100.00
41250;BME280;26984;59.928;30.306;2023-04-01T02:40:43;100272.06;;;0.54;100.00
41250;BME280;26984;59.928;30.306;2023-04-01T02:43:11;100272.41;;;0.67;100.00
41250;BME280;26984;59.928;30.306;2023-04-01T02:45:38;100265.59;;;0.57;100.00
41250;BME280;26984;59.928;30.306;2023-04-01T02:48:06;100279.34;;;0.52;100.00
41250;BME280;26984;59.928;30.306;2023-04-01T02:50:33;100272.09;;;0.62;100.00
41250;BME280;26984;59.928;30.306;2023-04-01T02:53:01;100273.59;;;0.65;100.00
41250;BME280;26984;59.928;30.306;2023-04-01T02:55:29;100269.94;;;0.58;100.00
41250;BME280;26984;59.928;30.306;2023-04-01T02:57:58;100272.34;;;0.43;100.00
41250;BME280;26984;59.928;30.306;2023-04-01T03:00:27;100260.44;;;0.47;100.00
41250;BME280;26984;59.928;30.306;2023-04-01T03:02:55;100275.19;;;0.50;100.00
41250;BME280;26984;59.928;30.306;2023-04-01T03:05:22;100270.22;;;0.46;100.00
41250;BME280;26984;59.928;30.306;2023-04-01T03:07:50;100284.09;;;0.40;100.00
41250;BME280;26984;59.928;30.306;2023-04-01T03:10:18;100273.13;;;0.35;100.00
41250;BME280;26984;59.928;30.306;2023-04-01T03:12:45;100275.31;;;0.40;100.00
41250;BME280;26984;59.928;30.306;2023-04-01T03:15:14;100278.63;;;0.42;100.00
41250;BME280;26984;59.928;30.306;2023-04-01T03:17:42;100285.94;;;0.48;100.00
41250;BME280;26984;59.928;30.306;2023-04-01T03:20:10;100287.59;;;0.49;100.00
41250;BME280;26984;59.928;30.306;2023-04-01T03:22:38;100286.47;;;0.52;100.00
41250;BME280;26984;59.928;30.306;2023-04-01T03:25:06;100284.50;;;0.54;100.00
41250;BME280;26984;59.928;30.306;2023-04-01T03:27:34;100287.78;;;0.47;100.00
41250;BME280;26984;59.928;30.306;2023-04-01T03:30:02;100291.06;;;0.50;100.00
41250;BME280;26984;59.928;30.306;2023-04-01T03:32:35;100287.78;;;0.47;100.00
41250;BME280;26984;59.928;30.306;2023-04-01T03:35:02;100283.47;;;0.46;100.00
41250;BME280;26984;59.928;30.306;2023-04-01T03:37:31;100287.88;;;0.38;100.00
41250;BME280;26984;59.928;30.306;2023-04-01T03:39:58;100296.72;;;0.46;100.00
41250;BME280;26984;59.928;30.306;2023-04-01T03:42:25;100294.66;;;0.32;100.00
41250;BME280;26984;59.928;30.306;2023-04-01T03:44:53;100296.97;;;0.35;100.00
41250;BME280;26984;59.928;30.306;2023-04-01T03:47:21;100297.50;;;0.39;100.00
41250;BME280;26984;59.928;30.306;2023-04-01T03:49:49;100296.25;;;0.51;100.00
41250;BME280;26984;59.928;30.306;2023-04-01T03:52:17;100298.88;;;0.51;100.00
41250;BME280;26984;59.928;30.306;2023-04-01T03:54:44;100303.06;;;0.54;100.00
41250;BME280;26984;59.928;30.306;2023-04-01T03:57:12;100316.72;;;0.41;100.00
41250;BME280;26984;59.928;30.306;2023-04-01T03:59:39;100301.34;;;0.44;100.00
41250;BME280;26984;59.928;30.306;2023-04-01T04:02:07;100298.38;;;0.47;100.00
41250;BME280;26984;59.928;30.306;2023-04-01T04:04:35;100303.88;;;0.54;100.00
41250;BME280;26984;59.928;30.306;2023-04-01T04:07:04;100299.69;;;0.43;100.00
41250;BME280;26984;59.928;30.306;2023-04-01T04:09:49;100301.84;;;0.48;100.00
41250;BME280;26984;59.928;30.306;2023-04-01T04:12:16;100305.34;;;0.57;100.00
41250;BME280;26984;59.928;30.306;2023-04-01T04:14:44;100300.94;;;0.65;100.00
41250;BME280;26984;59.928;30.306;2023-04-01T04:17:11;100299.44;;;0.71;100.00
41250;BME280;26984;59.928;30.306;2023-04-01T04:19:42;100295.66;;;0.74;100.00
41250;BME280;26984;59.928;30.306;2023-04-01T04:22:12;100302.16;;;0.87;100.00
41250;BME280;26984;59.928;30.306;2023-04-01T04:24:39;100303.31;;;0.85;100.00
41250;BME280;26984;59.928;30.306;2023-04-01T04:27:10;100308.47;;;0.86;100.00
41250;BME280;26984;59.928;30.306;2023-04-01T04:29:46;100308.59;;;0.77;100.00
41250;BME280;26984;59.928;30.306;2023-04-01T04:32:13;100299.00;;;0.84;100.00
41250;BME280;26984;59.928;30.306;2023-04-01T04:34:41;100306.47;;;0.88;100.00
41250;BME280;26984;59.928;30.306;2023-04-01T04:37:08;100301.66;;;0.92;100.00
41250;BME280;26984;59.928;30.306;2023-04-01T04:39:38;100309.63;;;0.92;100.00
41250;BME280;26984;59.928;30.306;2023-04-01T04:42:05;100309.50;;;1.02;100.00
41250;BME280;26984;59.928;30.306;2023-04-01T04:44:33;100311.00;;;1.04;100.00
41250;BME280;26984;59.928;30.306;2023-04-01T04:47:00;100309.16;;;1.05;100.00
41250;BME280;26984;59.928;30.306;2023-04-01T04:49:28;100316.66;;;1.17;100.00
41250;BME280;26984;59.928;30.306;2023-04-01T04:51:56;100316.69;;;1.26;100.00
41250;BME280;26984;59.928;30.306;2023-04-01T04:54:26;100315.66;;;1.35;100.00
41250;BME280;26984;59.928;30.306;2023-04-01T04:56:57;100311.03;;;1.45;100.00
41250;BME280;26984;59.928;30.306;2023-04-01T04:59:27;100312.03;;;1.44;100.00
41250;BME280;26984;59.928;30.306;2023-04-01T05:02:09;100316.53;;;1.52;100.00
41250;BME280;26984;59.928;30.306;2023-04-01T05:04:37;100317.53;;;1.51;100.00
41250;BME280;26984;59.928;30.306;2023-04-01T05:07:08;100317.38;;;1.60;100.00
41250;BME280;26984;59.928;30.306;2023-04-01T05:09:36;100320.53;;;1.72;100.00
41250;BME280;26984;59.928;30.306;2023-04-01T05:12:05;100315.34;;;1.87;100.00
41250;BME280;26984;59.928;30.306;2023-04-01T05:14:59;100316.19;;;1.87;100.00
41250;BME280;26984;59.928;30.306;2023-04-01T05:17:26;100321.84;;;1.92;100.00
41250;BME280;26984;59.928;30.306;2023-04-01T05:19:54;100320.50;;;1.97;100.00
41250;BME280;26984;59.928;30.306;2023-04-01T05:22:22;100323.16;;;1.88;100.00
41250;BME280;26984;59.928;30.306;2023-04-01T05:24:50;100327.47;;;1.89;100.00
41250;BME280;26984;59.928;30.306;2023-04-01T05:27:19;100333.63;;;1.74;100.00
41250;BME280;26984;59.928;30.306;2023-04-01T05:29:46;100319.66;;;1.63;100.00
41250;BME280;26984;59.928;30.306;2023-04-01T05:32:46;100324.00;;;1.64;100.00
41250;BME280;26984;59.928;30.306;2023-04-01T05:35:13;100333.44;;;1.67;100.00
41250;BME280;26984;59.928;30.306;2023-04-01T05:37:41;100329.47;;;1.79;100.00
41250;BME280;26984;59.928;30.306;2023-04-01T05:40:09;100321.50;;;1.87;100.00
41250;BME280;26984;59.928;30.306;2023-04-01T05:42:38;100327.81;;;1.95;100.00
41250;BME280;26984;59.928;30.306;2023-04-01T05:45:06;100325.97;;;1.95;100.00
41250;BME280;26984;59.928;30.306;2023-04-01T05:47:52;100337.28;;;1.97;100.00
41250;BME280;26984;59.928;30.306;2023-04-01T05:50:20;100331.13;;;2.05;100.00
41250;BME280;26984;59.928;30.306;2023-04-01T05:52:49;100330.63;;;2.01;100.00
41250;BME280;26984;59.928;30.306;2023-04-01T05:55:17;100335.63;;;1.96;100.00
41250;BME280;26984;59.928;30.306;2023-04-01T05:57:46;100344.91;;;1.84;100.00
41250;BME280;26984;59.928;30.306;2023-04-01T06:00:15;100347.06;;;1.80;100.00
41250;BME280;26984;59.928;30.306;2023-04-01T06:02:43;100325.84;;;1.72;100.00
41250;BME280;26984;59.928;30.306;2023-04-01T06:05:13;100343.91;;;1.93;100.00
41250;BME280;26984;59.928;30.306;2023-04-01T06:07:42;100334.75;;;1.96;100.00
41250;BME280;26984;59.928;30.306;2023-04-01T06:10:11;100341.09;;;1.95;100.00
41250;BME280;26984;59.928;30.306;2023-04-01T06:12:40;100346.41;;;1.86;100.00
41250;BME280;26984;59.928;30.306;2023-04-01T06:15:15;100343.75;;;1.78;100.00
41250;BME280;26984;59.928;30.306;2023-04-01T06:17:52;100349.06;;;1.86;100.00
41250;BME280;26984;59.928;30.306;2023-04-01T06:20:25;100353.72;;;1.92;100.00
41250;BME280;26984;59.928;30.306;2023-04-01T06:23:00;100339.56;;;2.08;100.00
41250;BME280;26984;59.928;30.306;2023-04-01T06:25:36;100346.41;;;2.11;100.00
41250;BME280;26984;59.928;30.306;2023-04-01T06:28:15;100346.06;;;2.14;100.00
41250;BME280;26984;59.928;30.306;2023-04-01T06:30:52;100351.03;;;2.17;100.00
41250;BME280;26984;59.928;30.306;2023-04-01T06:33:34;100349.19;;;2.26;100.00
41250;BME280;26984;59.928;30.306;2023-04-01T06:36:15;100344.84;;;2.33;100.00
41250;BME280;26984;59.928;30.306;2023-04-01T06:38:50;100347.13;;;2.52;100.00
41250;BME280;26984;59.928;30.306;2023-04-01T06:41:26;100347.94;;;2.61;100.00
41250;BME280;26984;59.928;30.306;2023-04-01T06:44:06;100346.59;;;2.65;100.00
41250;BME280;26984;59.928;30.306;2023-04-01T06:46:57;100349.19;;;2.81;100.00
41250;BME280;26984;59.928;30.306;2023-04-01T06:49:48;100348.31;;;2.89;100.00
41250;BME280;26984;59.928;30.306;2023-04-01T06:52:45;100352.28;;;2.93;100.00
41250;BME280;26984;59.928;30.306;2023-04-01T06:55:44;100346.53;;;2.81;100.00
41250;BME280;26984;59.928;30.306;2023-04-01T06:58:19;100353.34;;;2.76;100.00
41250;BME280;26984;59.928;30.306;2023-04-01T07:00:49;100361.34;;;2.76;100.00
41250;BME280;26984;59.928;30.306;2023-04-01T07:03:20;100356.53;;;2.71;100.00
41250;BME280;26984;59.928;30.306;2023-04-01T07:05:49;100358.34;;;2.79;100.00
41250;BME280;26984;59.928;30.306;2023-04-01T07:08:20;100357.66;;;2.77;100.00
41250;BME280;26984;59.928;30.306;2023-04-01T07:10:50;100361.00;;;2.79;100.00
41250;BME280;26984;59.928;30.306;2023-04-01T07:13:39;100363.66;;;2.79;100.00
41250;BME280;26984;59.928;30.306;2023-04-01T07:16:19;100357.63;;;2.93;100.00
41250;BME280;26984;59.928;30.306;2023-04-01T07:18:51;100366.22;;;3.03;100.00
41250;BME280;26984;59.928;30.306;2023-04-01T07:21:25;100362.97;;;3.16;100.00
41250;BME280;26984;59.928;30.306;2023-04-01T07:23:57;100366.13;;;3.20;100.00
41250;BME280;26984;59.928;30.306;2023-04-01T07:26:52;100372.44;;;3.19;100.00
41250;BME280;26984;59.928;30.306;2023-04-01T07:29:23;100371.41;;;3.28;100.00
41250;BME280;26984;59.928;30.306;2023-04-01T07:32:12;100380.56;;;3.25;100.00
41250;BME280;26984;59.928;30.306;2023-04-01T07:34:46;100373.41;;;3.26;100.00
41250;BME280;26984;59.928;30.306;2023-04-01T07:37:19;100373.41;;;3.26;100.00
41250;BME280;26984;59.928;30.306;2023-04-01T07:39:51;100383.53;;;3.30;100.00
41250;BME280;26984;59.928;30.306;2023-04-01T07:42:29;100375.53;;;3.30;100.00
41250;BME280;26984;59.928;30.306;2023-04-01T07:45:01;100392.59;;;3.21;100.00
41250;BME280;26984;59.928;30.306;2023-04-01T07:47:35;100394.56;;;3.19;100.00
41250;BME280;26984;59.928;30.306;2023-04-01T07:50:11;100392.94;;;3.18;100.00
41250;BME280;26984;59.928;30.306;2023-04-01T07:52:42;100393.22;;;3.23;100.00
41250;BME280;26984;59.928;30.306;2023-04-01T07:55:21;100394.03;;;3.32;100.00
41250;BME280;26984;59.928;30.306;2023-04-01T07:57:52;100398.34;;;3.33;100.00
41250;BME280;26984;59.928;30.306;2023-04-01T08:00:26;100400.09;;;3.18;100.00
41250;BME280;26984;59.928;30.306;2023-04-01T08:03:18;100404.16;;;2.97;100.00
41250;BME280;26984;59.928;30.306;2023-04-01T08:05:53;100402.50;;;2.96;100.00
41250;BME280;26984;59.928;30.306;2023-04-01T08:08:25;100403.88;;;2.84;100.00
41250;BME280;26984;59.928;30.306;2023-04-01T08:11:27;100414.72;;;2.74;100.00
41250;BME280;26984;59.928;30.306;2023-04-01T08:14:18;100415.19;;;2.86;100.00
41250;BME280;26984;59.928;30.306;2023-04-01T08:16:56;100422.16;;;2.87;100.00
41250;BME280;26984;59.928;30.306;2023-04-01T08:19:43;100425.81;;;2.86;100.00
41250;BME280;26984;59.928;30.306;2023-04-01T08:22:21;100419.69;;;2.85;100.00
41250;BME280;26984;59.928;30.306;2023-04-01T08:24:52;100417.31;;;2.91;100.00
41250;BME280;26984;59.928;30.306;2023-04-01T08:27:24;100419.31;;;2.97;100.00
41250;BME280;26984;59.928;30.306;2023-04-01T08:29:57;100420.63;;;3.01;100.00
41250;BME280;26984;59.928;30.306;2023-04-01T08:32:26;100426.56;;;3.11;100.00
41250;BME280;26984;59.928;30.306;2023-04-01T08:34:58;100417.41;;;3.14;100.00
41250;BME280;26984;59.928;30.306;2023-04-01T08:37:36;100413.53;;;3.24;100.00
41250;BME280;26984;59.928;30.306;2023-04-01T08:40:13;100418.53;;;3.27;100.00
41250;BME280;26984;59.928;30.306;2023-04-01T08:42:48;100421.66;;;3.31;100.00
41250;BME280;26984;59.928;30.306;2023-04-01T08:45:35;100425.63;;;3.35;100.00
41250;BME280;26984;59.928;30.306;2023-04-01T08:48:19;100413.34;;;3.26;100.00
41250;BME280;26984;59.928;30.306;2023-04-01T08:56:29;100428.25;;;3.43;100.00
41250;BME280;26984;59.928;30.306;2023-04-01T08:59:15;100427.91;;;3.46;100.00
41250;BME280;26984;59.928;30.306;2023-04-01T09:01:49;100435.28;;;3.59;100.00
41250;BME280;26984;59.928;30.306;2023-04-01T09:07:39;100448.13;;;3.87;100.00
41250;BME280;26984;59.928;30.306;2023-04-01T09:10:16;100450.72;;;3.95;100.00
41250;BME280;26984;59.928;30.306;2023-04-01T09:12:57;100450.44;;;3.90;100.00
41250;BME280;26984;59.928;30.306;2023-04-01T09:15:34;100451.00;;;3.77;100.00
41250;BME280;26984;59.928;30.306;2023-04-01T09:21:06;100454.94;;;3.89;100.00
41250;BME280;26984;59.928;30.306;2023-04-01T09:23:41;100447.34;;;4.01;100.00
41250;BME280;26984;59.928;30.306;2023-04-01T09:26:27;100453.03;;;3.98;100.00
41250;BME280;26984;59.928;30.306;2023-04-01T09:28:59;100456.31;;;3.85;100.00
41250;BME280;26984;59.928;30.306;2023-04-01T09:31:38;100454.81;;;3.82;100.00
41250;BME280;26984;59.928;30.306;2023-04-01T09:34:40;100451.47;;;3.80;100.00
41250;BME280;26984;59.928;30.306;2023-04-01T09:37:17;100453.31;;;3.80;100.00
41250;BME280;26984;59.928;30.306;2023-04-01T09:39:53;100460.97;;;3.83;100.00
41250;BME280;26984;59.928;30.306;2023-04-01T09:42:41;100455.28;;;3.86;100.00
41250;BME280;26984;59.928;30.306;2023-04-01T09:45:30;100455.28;;;3.86;100.00
41250;BME280;26984;59.928;30.306;2023-04-01T09:48:06;100460.63;;;3.86;100.00
41250;BME280;26984;59.928;30.306;2023-04-01T09:50:39;100450.84;;;4.01;100.00
41250;BME280;26984;59.928;30.306;2023-04-01T09:53:25;100449.47;;;4.05;100.00
41250;BME280;26984;59.928;30.306;2023-04-01T09:56:06;100465.72;;;4.19;100.00
41250;BME280;26984;59.928;30.306;2023-04-01T10:07:56;100471.81;;;4.80;100.00
41250;BME280;26984;59.928;30.306;2023-04-01T10:13:30;100473.59;;;4.88;100.00
41250;BME280;26984;59.928;30.306;2023-04-01T10:19:07;100487.13;;;5.16;100.00
41250;BME280;26984;59.928;30.306;2023-04-01T10:21:51;100476.91;;;5.19;100.00
41250;BME280;26984;59.928;30.306;2023-04-01T10:24:29;100482.31;;;5.26;100.00
41250;BME280;26984;59.928;30.306;2023-04-01T10:27:09;100484.25;;;5.32;100.00
41250;BME280;26984;59.928;30.306;2023-04-01T10:35:55;100486.94;;;5.32;100.00
41250;BME280;26984;59.928;30.306;2023-04-01T10:38:38;100482.53;;;5.24;100.00
41250;BME280;26984;59.928;30.306;2023-04-01T10:41:33;100487.03;;;5.24;100.00
41250;BME280;26984;59.928;30.306;2023-04-01T10:44:42;100493.38;;;5.08;100.00
41250;BME280;26984;59.928;30.306;2023-04-01T10:50:24;100488.97;;;5.00;100.00
41250;BME280;26984;59.928;30.306;2023-04-01T10:53:10;100504.41;;;4.90;100.00
41250;BME280;26984;59.928;30.306;2023-04-01T11:02:49;100502.41;;;4.92;100.00
41250;BME280;26984;59.928;30.306;2023-04-01T11:08:41;100500.75;;;4.91;100.00
41250;BME280;26984;59.928;30.306;2023-04-01T11:11:21;100500.47;;;5.01;100.00
41250;BME280;26984;59.928;30.306;2023-04-01T11:16:42;100506.09;;;5.21;100.00
41250;BME280;26984;59.928;30.306;2023-04-01T11:22:12;100518.53;;;5.28;99.06
41250;BME280;26984;59.928;30.306;2023-04-01T11:24:52;100515.66;;;5.15;99.01
41250;BME280;26984;59.928;30.306;2023-04-01T11:27:50;100522.03;;;5.29;98.65
41250;BME280;26984;59.928;30.306;2023-04-01T11:30:26;100522.03;;;5.29;97.55
41250;BME280;26984;59.928;30.306;2023-04-01T11:32:57;100516.69;;;5.14;97.82
41250;BME280;26984;59.928;30.306;2023-04-01T11:38:33;100526.25;;;5.09;100.00
41250;BME280;26984;59.928;30.306;2023-04-01T11:41:24;100524.59;;;4.93;100.00
41250;BME280;26984;59.928;30.306;2023-04-01T11:43:55;100508.47;;;4.86;100.00
41250;BME280;26984;59.928;30.306;2023-04-01T11:49:51;100530.19;;;4.98;100.00
41250;BME280;26984;59.928;30.306;2023-04-01T11:55:22;100538.81;;;4.70;100.00
41250;BME280;26984;59.928;30.306;2023-04-01T11:57:51;100539.19;;;4.67;100.00
41250;BME280;26984;59.928;30.306;2023-04-01T12:00:26;100553.72;;;4.79;100.00
41250;BME280;26984;59.928;30.306;2023-04-01T12:03:02;100545.47;;;4.89;99.88
41250;BME280;26984;59.928;30.306;2023-04-01T12:05:38;100547.44;;;4.95;98.51
41250;BME280;26984;59.928;30.306;2023-04-01T12:08:18;100543.06;;;4.79;98.71
41250;BME280;26984;59.928;30.306;2023-04-01T12:10:55;100543.47;;;4.91;98.62
41250;BME280;26984;59.928;30.306;2023-04-01T12:13:28;100546.97;;;5.07;98.08
41250;BME280;26984;59.928;30.306;2023-04-01T12:16:03;100545.41;;;5.12;97.11
41250;BME280;26984;59.928;30.306;2023-04-01T12:18:34;100547.91;;;5.14;97.90
41250;BME280;26984;59.928;30.306;2023-04-01T12:21:04;100547.56;;;5.32;98.95
41250;BME280;26984;59.928;30.306;2023-04-01T12:23:46;100551.97;;;5.39;98.37
41250;BME280;26984;59.928;30.306;2023-04-01T12:26:31;100558.44;;;5.45;97.95
41250;BME280;26984;59.928;30.306;2023-04-01T12:29:14;100554.06;;;5.44;97.47
41250;BME280;26984;59.928;30.306;2023-04-01T12:31:47;100556.03;;;5.35;95.86
41250;BME280;26984;59.928;30.306;2023-04-01T12:37:04;100565.97;;;5.26;95.86
41250;BME280;26984;59.928;30.306;2023-04-01T12:39:39;100571.84;;;5.22;96.01
41250;BME280;26984;59.928;30.306;2023-04-01T12:42:14;100564.75;;;5.29;95.65
41250;BME280;26984;59.928;30.306;2023-04-01T12:44:49;100564.88;;;5.36;95.87
41250;BME280;26984;59.928;30.306;2023-04-01T12:47:43;100569.59;;;5.34;93.86
41250;BME280;26984;59.928;30.306;2023-04-01T12:50:23;100572.97;;;5.27;92.39
41250;BME280;26984;59.928;30.306;2023-04-01T12:53:05;100571.03;;;5.21;91.96
41250;BME280;26984;59.928;30.306;2023-04-01T12:55:36;100579.50;;;5.25;92.99
41250;BME280;26984;59.928;30.306;2023-04-01T12:58:10;100583.41;;;5.37;92.65
41250;BME280;26984;59.928;30.306;2023-04-01T13:00:56;100576.84;;;5.55;91.34
41250;BME280;26984;59.928;30.306;2023-04-01T13:06:20;100580.44;;;5.76;88.80
41250;BME280;26984;59.928;30.306;2023-04-01T13:08:55;100586.03;;;5.82;88.50
41250;BME280;26984;59.928;30.306;2023-04-01T13:11:27;100586.69;;;5.84;85.50
41250;BME280;26984;59.928;30.306;2023-04-01T13:16:49;100585.22;;;5.81;82.12
41250;BME280;26984;59.928;30.306;2023-04-01T13:19:21;100590.09;;;5.78;80.54
41250;BME280;26984;59.928;30.306;2023-04-01T13:21:54;100598.47;;;5.89;82.58
41250;BME280;26984;59.928;30.306;2023-04-01T13:24:29;100601.56;;;6.22;81.42
41250;BME280;26984;59.928;30.306;2023-04-01T13:26:59;100612.78;;;6.47;79.33
41250;BME280;26984;59.928;30.306;2023-04-01T13:29:31;100604.41;;;6.57;75.34
41250;BME280;26984;59.928;30.306;2023-04-01T13:32:12;100604.41;;;6.57;73.99
41250;BME280;26984;59.928;30.306;2023-04-01T13:34:48;100610.03;;;6.62;73.80
41250;BME280;26984;59.928;30.306;2023-04-01T13:37:21;100610.50;;;6.66;73.40
41250;BME280;26984;59.928;30.306;2023-04-01T13:40:04;100618.75;;;6.71;71.97
41250;BME280;26984;59.928;30.306;2023-04-01T13:42:40;100606.09;;;6.58;69.79
41250;BME280;26984;59.928;30.306;2023-04-01T13:45:10;100615.94;;;6.58;70.94
41250;BME280;26984;59.928;30.306;2023-04-01T13:50:33;100616.38;;;6.04;67.24
41250;BME280;26984;59.928;30.306;2023-04-01T13:53:05;100616.47;;;5.81;68.58
41250;BME280;26984;59.928;30.306;2023-04-01T13:55:38;100621.28;;;5.70;66.86
41250;BME280;26984;59.928;30.306;2023-04-01T13:58:13;100626.25;;;5.59;66.67
41250;BME280;26984;59.928;30.306;2023-04-01T14:00:51;100632.13;;;5.54;68.42
41250;BME280;26984;59.928;30.306;2023-04-01T14:03:27;100635.44;;;5.41;66.04
41250;BME280;26984;59.928;30.306;2023-04-01T14:06:00;100632.84;;;5.33;66.90
41250;BME280;26984;59.928;30.306;2023-04-01T14:08:36;100632.09;;;5.24;68.36
41250;BME280;26984;59.928;30.306;2023-04-01T14:11:12;100638.97;;;5.19;66.78
41250;BME280;26984;59.928;30.306;2023-04-01T14:13:44;100635.22;;;5.13;66.72
41250;BME280;26984;59.928;30.306;2023-04-01T14:16:22;100640.81;;;5.18;67.63
41250;BME280;26984;59.928;30.306;2023-04-01T14:19:02;100628.50;;;5.17;67.42
41250;BME280;26984;59.928;30.306;2023-04-01T14:21:38;100640.94;;;5.25;63.97
41250;BME280;26984;59.928;30.306;2023-04-01T14:24:19;100646.22;;;4.95;59.72
41250;BME280;26984;59.928;30.306;2023-04-01T14:26:59;100652.44;;;4.88;57.38
41250;BME280;26984;59.928;30.306;2023-04-01T14:29:32;100652.06;;;4.91;60.86
41250;BME280;26984;59.928;30.306;2023-04-01T14:32:08;100652.94;;;4.91;60.10
41250;BME280;26984;59.928;30.306;2023-04-01T14:34:40;100652.06;;;4.91;56.80